Time;durP1;ratioP1;P1;durP2;ratioP2;P2;SDS_P1;SDS_P2;PMS_P1;PMS_P2;Temp;Humidity;BMP_temperature;BMP_pressure;BME280_temperature;BME280_humidity;BME280_pressure;Samples;Min_cycle;Max_cycle;Signal;HPM_P1;HPM_P2
2023/03/15 00:01:19;;;;;;;5.95;3.83;;;5.20;62.80;;;;;;4963870;28;114312;-79
2023/03/15 00:03:46;;;;;;;7.53;3.85;;;5.10;63.00;;;;;;4963140;28;115132;-79
2023/03/15 00:06:13;;;;;;;7.28;3.78;;;5.10;63.30;;;;;;4962729;28;114670;-79
2023/03/15 00:08:40;;;;;;;6.18;3.53;;;5.10;63.10;;;;;;4964676;28;114610;-79
2023/03/15 00:11:08;;;;;;;5.68;3.20;;;5.00;62.70;;;;;;4964230;28;114452;-79
2023/03/15 00:13:35;;;;;;;4.35;2.60;;;5.00;62.40;;;;;;4960625;28;115578;-79
2023/03/15 00:16:02;;;;;;;5.50;2.60;;;4.90;62.20;;;;;;4962458;28;114664;-78
2023/03/15 00:18:30;;;;;;;5.85;2.53;;;4.80;62.00;;;;;;4963529;28;114487;-80
2023/03/15 00:21:00;;;;;;;7.80;2.40;;;4.70;61.60;;;;;;4961287;28;115627;-79
2023/03/15 00:23:27;;;;;;;5.60;2.33;;;4.70;61.50;;;;;;4962369;28;115139;-79
2023/03/15 00:25:54;;;;;;;4.22;2.42;;;4.60;61.10;;;;;;4961182;28;114717;-79
2023/03/15 00:28:21;;;;;;;6.57;2.25;;;4.50;61.10;;;;;;4962889;28;114307;-79
2023/03/15 00:31:15;;;;;;;5.47;2.30;;;4.50;61.30;;;;;;4947500;28;114282;-79
2023/03/15 00:33:44;;;;;;;5.78;2.22;;;4.50;61.50;;;;;;4953292;28;116882;-79
2023/03/15 00:36:11;;;;;;;7.50;2.50;;;4.40;61.50;;;;;;4980671;28;115124;-79
2023/03/15 00:38:40;;;;;;;6.38;2.15;;;4.40;61.50;;;;;;4934688;28;114448;-79
2023/03/15 00:41:13;;;;;;;6.05;2.05;;;4.40;61.40;;;;;;4950462;28;114380;-79
2023/03/15 00:43:41;;;;;;;5.20;2.35;;;4.40;60.90;;;;;;4965890;28;115112;-79
2023/03/15 00:46:08;;;;;;;7.53;3.05;;;4.40;60.80;;;;;;4933926;28;114694;-79
2023/03/15 00:48:36;;;;;;;5.13;2.08;;;4.40;61.00;;;;;;4966801;28;114391;-79
2023/03/15 00:51:09;;;;;;;5.88;2.13;;;4.30;60.50;;;;;;4950532;28;114332;-78
2023/03/15 00:53:38;;;;;;;4.10;2.28;;;4.20;60.70;;;;;;4965136;28;117919;-79
2023/03/15 00:56:11;;;;;;;5.10;2.50;;;4.20;60.80;;;;;;4945342;28;116094;-78
2023/03/15 00:58:38;;;;;;;5.20;2.90;;;4.20;60.80;;;;;;4950298;28;114389;-78
2023/03/15 01:01:17;;;;;;;6.10;2.47;;;4.20;60.70;;;;;;4966723;28;114485;-79
2023/03/15 01:03:45;;;;;;;7.95;3.50;;;4.20;60.70;;;;;;4965352;28;115024;-79
2023/03/15 01:06:15;;;;;;;6.93;3.17;;;4.20;60.90;;;;;;4949411;28;115107;-79
2023/03/15 01:08:42;;;;;;;9.02;3.83;;;4.20;61.10;;;;;;4950214;28;114737;-79
2023/03/15 01:11:12;;;;;;;9.10;2.80;;;4.20;60.70;;;;;;4966430;28;114503;-79
2023/03/15 01:13:40;;;;;;;10.55;3.47;;;4.20;61.10;;;;;;4932766;28;115168;-79
2023/03/15 01:16:09;;;;;;;8.82;3.08;;;4.20;61.00;;;;;;4948809;28;114698;-79
2023/03/15 01:18:37;;;;;;;6.25;2.83;;;4.20;60.70;;;;;;4949535;28;114337;-79
2023/03/15 01:21:08;;;;;;;5.30;2.10;;;4.20;60.50;;;;;;4965840;28;114765;-79
2023/03/15 01:23:36;;;;;;;10.05;2.40;;;4.30;61.00;;;;;;4965623;28;115355;-79
2023/03/15 01:26:06;;;;;;;6.72;3.20;;;4.20;60.70;;;;;;4965209;28;114691;-79
2023/03/15 01:28:33;;;;;;;6.65;2.58;;;4.30;60.60;;;;;;4934036;28;118225;-79
2023/03/15 01:31:02;;;;;;;6.13;2.60;;;4.30;60.40;;;;;;4934104;28;116648;-79
2023/03/15 01:33:29;;;;;;;7.15;2.63;;;4.40;60.40;;;;;;4966079;28;115294;-79
2023/03/15 01:36:05;;;;;;;5.65;2.70;;;4.40;60.30;;;;;;4965401;28;114662;-79
2023/03/15 01:38:33;;;;;;;7.90;2.70;;;4.50;60.20;;;;;;4937585;28;114443;-79
2023/03/15 01:41:00;;;;;;;9.70;5.38;;;4.50;60.00;;;;;;4985709;28;114629;-79
2023/03/15 01:43:30;;;;;;;9.70;5.75;;;4.50;59.70;;;;;;4967424;28;115104;-79
2023/03/15 01:46:01;;;;;;;8.27;3.60;;;4.50;59.60;;;;;;4967989;28;115090;-79
2023/03/15 01:48:43;;;;;;;9.18;3.47;;;4.50;59.60;;;;;;4969659;28;114345;-79
2023/03/15 01:51:21;;;;;;;8.98;3.50;;;4.50;59.50;;;;;;4956122;28;115687;-79
2023/03/15 01:54:22;;;;;;;7.97;3.33;;;4.50;59.90;;;;;;4964724;28;115049;-79
2023/03/15 01:57:03;;;;;;;10.48;3.80;;;4.50;60.00;;;;;;4952643;28;114573;-79
2023/03/15 01:59:37;;;;;;;10.77;3.63;;;4.50;59.50;;;;;;4966966;28;114561;-79
2023/03/15 02:02:05;;;;;;;10.75;4.38;;;4.50;59.70;;;;;;4966040;28;114461;-79
2023/03/15 02:04:38;;;;;;;11.23;4.55;;;4.40;59.40;;;;;;4964730;28;115122;-79
2023/03/15 02:07:06;;;;;;;8.50;4.43;;;4.40;59.20;;;;;;4932682;28;117420;-79
2023/03/15 02:10:04;;;;;;;7.63;3.22;;;4.40;59.10;;;;;;4948790;28;114607;-79
2023/03/15 02:12:37;;;;;;;11.43;4.22;;;4.40;58.80;;;;;;4964024;28;114348;-79
2023/03/15 02:15:06;;;;;;;10.88;4.50;;;4.30;58.90;;;;;;4948352;28;115799;-80
2023/03/15 02:17:43;;;;;;;12.68;5.85;;;4.30;59.00;;;;;;4948733;28;114835;-78
2023/03/15 02:20:34;;;;;;;12.32;6.05;;;4.40;59.10;;;;;;4956127;28;116479;-78
2023/03/15 02:23:07;;;;;;;13.82;7.10;;;4.50;59.00;;;;;;4969599;28;114659;-77
2023/03/15 02:26:05;;;;;;;10.52;5.85;;;4.40;59.00;;;;;;4953957;28;115618;-78
2023/03/15 02:28:32;;;;;;;11.77;5.00;;;4.50;59.30;;;;;;4949417;28;117790;-79
2023/03/15 02:30:59;;;;;;;11.13;4.95;;;4.50;58.50;;;;;;4949080;28;114395;-78
2023/03/15 02:33:33;;;;;;;13.18;5.40;;;4.40;58.10;;;;;;4949251;28;114651;-79
2023/03/15 02:36:19;;;;;;;12.45;5.40;;;4.40;58.10;;;;;;4963862;28;115174;-78
2023/03/15 02:38:49;;;;;;;10.45;5.15;;;4.40;58.00;;;;;;4968291;28;115900;-78
2023/03/15 02:41:32;;;;;;;11.98;4.90;;;4.30;57.80;;;;;;4968270;28;114326;-78
2023/03/15 02:44:05;;;;;;;10.18;4.78;;;4.30;57.60;;;;;;4984725;28;114502;-79
2023/03/15 02:46:33;;;;;;;10.30;4.43;;;4.20;57.70;;;;;;4967904;28;115115;-79
2023/03/15 02:49:03;;;;;;;12.90;4.72;;;4.20;57.40;;;;;;4984111;28;114786;-78
2023/03/15 02:51:31;;;;;;;10.45;4.82;;;4.20;57.30;;;;;;4952613;28;114790;-79
2023/03/15 02:53:58;;;;;;;11.63;4.80;;;4.10;57.70;;;;;;4969162;28;114468;-79
2023/03/15 02:56:26;;;;;;;8.32;4.57;;;4.10;57.50;;;;;;4984620;28;115099;-79
2023/03/15 02:58:54;;;;;;;10.13;4.55;;;4.10;57.60;;;;;;4967534;28;117677;-79
2023/03/15 03:01:22;;;;;;;11.98;5.20;;;4.10;57.40;;;;;;4985289;28;114532;-80
2023/03/15 03:03:49;;;;;;;10.02;3.80;;;4.10;57.40;;;;;;4984702;28;114471;-79
2023/03/15 03:06:18;;;;;;;8.63;4.07;;;4.20;57.20;;;;;;4967411;28;115368;-79
2023/03/15 03:08:46;;;;;;;10.20;4.60;;;4.10;57.40;;;;;;4981027;28;115159;-79
2023/03/15 03:11:17;;;;;;;12.52;5.03;;;4.10;57.40;;;;;;4948360;28;114543;-79
2023/03/15 03:13:44;;;;;;;13.30;5.30;;;4.10;57.50;;;;;;4944370;28;114506;-79
2023/03/15 03:16:11;;;;;;;9.57;4.65;;;4.10;57.70;;;;;;4947251;28;114971;-79
2023/03/15 03:18:41;;;;;;;14.18;5.45;;;4.10;57.70;;;;;;4948230;28;117710;-79
2023/03/15 03:21:08;;;;;;;9.48;4.50;;;4.20;57.90;;;;;;4964252;28;114590;-79
2023/03/15 03:23:35;;;;;;;11.38;5.57;;;4.20;57.60;;;;;;4964382;28;114568;-79
2023/03/15 03:26:03;;;;;;;12.93;6.53;;;4.20;57.50;;;;;;4962854;28;115021;-79
2023/03/15 03:28:32;;;;;;;10.23;5.68;;;4.20;57.60;;;;;;4947346;28;114982;-79
2023/03/15 03:31:00;;;;;;;14.73;6.10;;;4.20;57.70;;;;;;4964179;28;114500;-79
2023/03/15 03:33:28;;;;;;;11.80;5.10;;;4.20;57.90;;;;;;4948125;28;114508;-80
2023/03/15 03:36:03;;;;;;;8.90;4.75;;;4.30;58.00;;;;;;4947549;28;115078;-79
2023/03/15 03:38:30;;;;;;;8.10;5.00;;;4.30;57.80;;;;;;4963426;28;115156;-80
2023/03/15 03:41:00;;;;;;;9.75;4.85;;;4.40;57.80;;;;;;4964422;28;114408;-80
2023/03/15 03:43:30;;;;;;;10.93;5.10;;;4.30;58.00;;;;;;4949266;28;114705;-80
2023/03/15 03:45:58;;;;;;;14.00;6.20;;;4.30;58.00;;;;;;4968494;28;115401;-80
2023/03/15 03:48:26;;;;;;;11.48;5.30;;;4.40;58.10;;;;;;4983329;28;115423;-80
2023/03/15 03:50:53;;;;;;;11.68;5.28;;;4.40;58.00;;;;;;4984698;28;114484;-80
2023/03/15 03:53:20;;;;;;;10.95;5.55;;;4.40;58.20;;;;;;4983853;28;114546;-80
2023/03/15 03:55:48;;;;;;;10.20;5.03;;;4.50;58.30;;;;;;4983109;28;115496;-80
2023/03/15 03:58:20;;;;;;;13.93;6.35;;;4.50;58.30;;;;;;4967538;28;115066;-80
2023/03/15 04:00:55;;;;;;;16.13;6.93;;;4.50;58.40;;;;;;4948736;28;114794;-80
2023/03/15 04:03:28;;;;;;;12.95;7.97;;;4.60;58.30;;;;;;4964149;28;114744;-79
2023/03/15 04:06:05;;;;;;;14.38;7.38;;;4.50;58.20;;;;;;4933140;28;115106;-80
2023/03/15 04:08:37;;;;;;;11.23;6.90;;;4.50;58.10;;;;;;4965457;28;114736;-80
2023/03/15 04:11:04;;;;;;;13.55;6.60;;;4.60;58.20;;;;;;4967320;28;117180;-79
2023/03/15 04:13:35;;;;;;;11.40;6.03;;;4.60;58.30;;;;;;4967170;28;114434;-79
2023/03/15 04:16:05;;;;;;;14.60;6.50;;;4.60;58.40;;;;;;4965578;28;115136;-80
2023/03/15 04:18:43;;;;;;;13.70;6.30;;;4.50;58.30;;;;;;4937430;28;114669;-79
2023/03/15 04:21:11;;;;;;;13.13;6.68;;;4.50;58.40;;;;;;4966822;28;114639;-80
2023/03/15 04:23:41;;;;;;;13.63;7.13;;;4.50;58.30;;;;;;4951020;28;114589;-80
2023/03/15 04:26:28;;;;;;;13.07;6.75;;;4.60;58.30;;;;;;4967390;28;115023;-80
2023/03/15 04:29:28;;;;;;;12.95;5.90;;;4.50;58.20;;;;;;4973155;28;116285;-80
2023/03/15 04:32:16;;;;;;;15.35;8.02;;;4.50;58.20;;;;;;4966277;28;114680;-80
2023/03/15 04:35:01;;;;;;;14.65;8.63;;;4.50;58.00;;;;;;4968068;28;114377;-80
2023/03/15 04:37:46;;;;;;;12.55;7.68;;;4.30;58.20;;;;;;4952066;28;116170;-80
2023/03/15 04:40:26;;;;;;;16.15;8.75;;;4.40;58.30;;;;;;4965593;28;115775;-80
2023/03/15 04:43:03;;;;;;;15.20;6.85;;;4.30;58.20;;;;;;4968715;28;114348;-79
2023/03/15 04:46:03;;;;;;;12.65;6.57;;;4.30;57.90;;;;;;4940677;28;114508;-79
2023/03/15 04:48:57;;;;;;;17.38;7.38;;;4.20;57.80;;;;;;4965702;28;115198;-79
2023/03/15 04:51:53;;;;;;;10.73;5.20;;;4.10;58.00;;;;;;4944992;28;115255;-79
2023/03/15 04:54:39;;;;;;;9.50;4.78;;;4.10;58.20;;;;;;4972673;28;114560;-79
2023/03/15 04:57:16;;;;;;;9.32;4.90;;;4.20;58.20;;;;;;4986336;28;114467;-79
2023/03/15 05:00:13;;;;;;;13.10;5.25;;;4.10;58.20;;;;;;4972597;28;115199;-79
2023/03/15 05:02:57;;;;;;;13.55;5.10;;;4.10;58.10;;;;;;4985556;28;115072;-79
2023/03/15 05:05:38;;;;;;;13.82;4.50;;;4.10;58.10;;;;;;4962886;28;114518;-79
2023/03/15 05:08:32;;;;;;;12.88;6.20;;;4.10;58.20;;;;;;4965647;28;114637;-79
2023/03/15 05:11:21;;;;;;;16.77;6.78;;;4.10;58.10;;;;;;4948110;28;115156;-80
2023/03/15 05:14:08;;;;;;;15.02;5.65;;;4.00;58.10;;;;;;4965440;28;114819;-79
2023/03/15 05:17:02;;;;;;;13.23;5.18;;;4.00;58.40;;;;;;4965402;28;114554;-79
2023/03/15 05:19:50;;;;;;;14.57;6.97;;;3.90;58.70;;;;;;4967361;28;114487;-79
2023/03/15 05:22:34;;;;;;;16.60;6.95;;;3.90;58.60;;;;;;4965193;28;115118;-79
2023/03/15 05:25:19;;;;;;;16.50;6.65;;;4.00;58.60;;;;;;4964610;28;116939;-80
2023/03/15 05:27:58;;;;;;;17.83;6.18;;;4.10;58.70;;;;;;4966424;28;114392;-78
2023/03/15 05:30:33;;;;;;;13.43;5.20;;;4.10;58.50;;;;;;4966610;28;115754;-78
2023/03/15 05:33:19;;;;;;;12.70;4.78;;;4.10;58.60;;;;;;4978860;28;115241;-79
2023/03/15 05:36:02;;;;;;;14.07;5.28;;;4.10;58.70;;;;;;4970598;28;117167;-78
2023/03/15 05:38:58;;;;;;;15.18;4.95;;;4.10;58.30;;;;;;4985654;28;114504;-81
2023/03/15 05:41:54;;;;;;;11.02;5.18;;;4.10;58.20;;;;;;4990627;28;114299;-78
2023/03/15 05:44:36;;;;;;;11.30;5.57;;;4.10;58.20;;;;;;4956016;28;115157;-79
2023/03/15 05:47:22;;;;;;;13.85;4.78;;;4.10;58.20;;;;;;4985926;28;114622;-78
2023/03/15 05:50:22;;;;;;;14.35;4.43;;;4.10;58.00;;;;;;4966754;28;114821;-79
2023/03/15 05:53:16;;;;;;;9.73;3.97;;;4.10;58.00;;;;;;4979626;28;115302;-78
2023/03/15 05:56:02;;;;;;;11.40;4.00;;;4.10;57.90;;;;;;4964228;28;116373;-79
2023/03/15 05:58:38;;;;;;;12.02;3.88;;;4.10;57.90;;;;;;4965918;28;115678;-79
2023/03/15 06:01:21;;;;;;;12.13;4.68;;;4.00;57.80;;;;;;4937584;28;114992;-78
2023/03/15 06:04:11;;;;;;;11.07;4.60;;;4.00;57.60;;;;;;4966548;28;115262;-78
2023/03/15 06:06:39;;;;;;;14.52;5.40;;;4.00;57.70;;;;;;4964222;28;116394;-78
2023/03/15 06:09:08;;;;;;;14.45;4.82;;;4.00;57.80;;;;;;4948115;28;115187;-80
2023/03/15 06:11:38;;;;;;;16.38;4.53;;;4.10;57.90;;;;;;4966396;28;114507;-78
2023/03/15 06:14:09;;;;;;;15.90;6.40;;;4.10;57.70;;;;;;4918559;28;114521;-79
2023/03/15 06:16:44;;;;;;;11.75;3.75;;;4.10;57.70;;;;;;4964742;28;115000;-78
2023/03/15 06:19:11;;;;;;;16.15;3.90;;;4.10;57.60;;;;;;4948329;28;114785;-80
2023/03/15 06:21:38;;;;;;;10.73;3.38;;;4.10;57.50;;;;;;4966347;28;114585;-78
2023/03/15 06:24:11;;;;;;;13.82;3.83;;;4.10;57.40;;;;;;4935292;28;114376;-80
2023/03/15 06:26:38;;;;;;;14.02;4.38;;;4.20;57.30;;;;;;4964254;28;115080;-79
2023/03/15 06:29:06;;;;;;;14.20;4.53;;;4.20;57.20;;;;;;4948529;28;114544;-79
2023/03/15 06:31:33;;;;;;;17.52;5.30;;;4.20;57.20;;;;;;4963786;28;114429;-79
2023/03/15 06:34:03;;;;;;;13.73;4.97;;;4.20;57.20;;;;;;4965317;28;114428;-79
2023/03/15 06:36:30;;;;;;;15.50;5.50;;;4.20;57.20;;;;;;4964210;28;115014;-80
2023/03/15 06:38:58;;;;;;;15.13;4.53;;;4.30;57.10;;;;;;4964225;28;115159;-79
2023/03/15 06:41:26;;;;;;;11.10;4.13;;;4.30;57.10;;;;;;4966204;28;114572;-79
2023/03/15 06:44:01;;;;;;;13.75;4.82;;;4.40;57.00;;;;;;4964961;28;114405;-79
2023/03/15 06:46:29;;;;;;;12.57;3.92;;;4.40;56.70;;;;;;4963912;28;116172;-80
2023/03/15 06:48:56;;;;;;;11.90;3.90;;;4.30;56.70;;;;;;4947326;28;115205;-79
2023/03/15 06:51:25;;;;;;;10.35;4.57;;;4.30;57.00;;;;;;4937579;28;118844;-79
2023/03/15 06:53:52;;;;;;;13.60;5.45;;;4.30;56.70;;;;;;4967862;28;114326;-80
2023/03/15 06:56:20;;;;;;;17.70;5.18;;;4.30;56.70;;;;;;4966728;28;115000;-79
2023/03/15 06:58:47;;;;;;;11.75;3.67;;;4.40;56.70;;;;;;4984823;28;114874;-80
2023/03/15 07:01:15;;;;;;;16.05;3.88;;;4.30;56.60;;;;;;4951481;28;114465;-80
2023/03/15 07:03:42;;;;;;;13.20;4.07;;;4.40;56.40;;;;;;4985534;28;114355;-80
2023/03/15 07:06:09;;;;;;;17.25;4.55;;;4.40;56.20;;;;;;4984708;28;115206;-79
2023/03/15 07:08:37;;;;;;;14.88;4.32;;;4.40;56.40;;;;;;4983598;28;114611;-80
2023/03/15 07:11:05;;;;;;;17.77;4.35;;;4.40;56.20;;;;;;4965444;28;116276;-79
2023/03/15 07:13:32;;;;;;;23.83;5.70;;;4.30;56.20;;;;;;4964084;28;114521;-80
2023/03/15 07:15:59;;;;;;;118.80;16.02;;;4.30;56.00;;;;;;4964628;28;115593;-79
2023/03/15 07:18:26;;;;;;;31.52;6.90;;;4.30;56.00;;;;;;4971235;28;114656;-80
2023/03/15 07:21:01;;;;;;;224.75;22.08;;;4.40;56.30;;;;;;4984361;28;114733;-79
2023/03/15 07:23:28;;;;;;;17.30;3.97;;;4.50;56.20;;;;;;4967891;28;114457;-79
2023/03/15 07:25:56;;;;;;;49.97;7.32;;;4.50;56.20;;;;;;4966313;28;117265;-80
2023/03/15 07:28:24;;;;;;;39.35;6.63;;;4.50;56.10;;;;;;4949913;28;115151;-80
2023/03/15 07:30:55;;;;;;;53.78;7.68;;;4.60;55.70;;;;;;4983934;28;114500;-80
2023/03/15 07:33:23;;;;;;;32.00;7.55;;;4.50;55.60;;;;;;4984035;28;116053;-80
2023/03/15 07:35:52;;;;;;;17.73;4.70;;;4.50;55.70;;;;;;4984159;28;115644;-79
2023/03/15 07:38:23;;;;;;;14.30;4.32;;;4.60;55.50;;;;;;4984427;28;115382;-79
2023/03/15 07:40:50;;;;;;;19.13;4.97;;;4.60;55.30;;;;;;4983999;28;114392;-80
2023/03/15 07:43:17;;;;;;;21.48;4.63;;;4.50;55.00;;;;;;4970879;28;117383;-79
2023/03/15 07:45:48;;;;;;;18.92;4.93;;;4.40;55.30;;;;;;4944289;28;115281;-78
2023/03/15 07:48:16;;;;;;;20.38;5.95;;;4.40;55.60;;;;;;4962785;28;116238;-78
2023/03/15 07:50:44;;;;;;;16.70;3.95;;;4.50;55.70;;;;;;4963936;28;114636;-79
2023/03/15 07:53:11;;;;;;;12.82;4.10;;;4.50;55.80;;;;;;4963511;28;115924;-79
2023/03/15 07:55:38;;;;;;;17.80;4.47;;;4.50;55.50;;;;;;4963001;28;115361;-79
2023/03/15 07:58:05;;;;;;;18.77;3.90;;;4.50;55.20;;;;;;4963601;28;114600;-79
2023/03/15 08:00:33;;;;;;;15.23;3.72;;;4.50;55.00;;;;;;4964839;28;114373;-79
2023/03/15 08:03:00;;;;;;;18.05;6.50;;;4.60;55.00;;;;;;4964909;28;119801;-81
2023/03/15 08:05:28;;;;;;;23.40;6.47;;;4.60;55.20;;;;;;4965617;28;115584;-80
2023/03/15 08:07:55;;;;;;;11.00;4.18;;;4.60;55.10;;;;;;4946021;28;115966;-80
2023/03/15 08:10:22;;;;;;;7.75;4.10;;;4.60;54.80;;;;;;4963386;28;114435;-80
2023/03/15 08:12:50;;;;;;;19.05;4.95;;;4.60;54.70;;;;;;4947325;28;114533;-79
2023/03/15 08:15:18;;;;;;;8.50;4.00;;;4.70;54.50;;;;;;4961993;28;116303;-80
2023/03/15 08:17:49;;;;;;;14.00;3.88;;;4.70;54.40;;;;;;4963533;28;116006;-80
2023/03/15 08:20:16;;;;;;;15.00;3.78;;;4.70;54.10;;;;;;4963256;28;114312;-79
2023/03/15 08:22:45;;;;;;;14.50;4.00;;;4.70;53.90;;;;;;4963390;28;114509;-80
2023/03/15 08:25:15;;;;;;;18.25;5.40;;;4.70;53.80;;;;;;4929006;28;115752;-80
2023/03/15 08:27:42;;;;;;;20.73;4.90;;;4.60;53.70;;;;;;4946796;28;114810;-80
2023/03/15 08:30:11;;;;;;;16.17;5.22;;;4.70;53.50;;;;;;4947177;28;114415;-79
2023/03/15 08:32:40;;;;;;;13.57;5.07;;;4.60;53.70;;;;;;4964177;28;114561;-79
2023/03/15 08:35:09;;;;;;;16.40;4.95;;;4.70;53.90;;;;;;4908529;28;117357;-80
2023/03/15 08:37:36;;;;;;;14.15;4.30;;;4.70;53.80;;;;;;4941635;28;114790;-79
2023/03/15 08:40:08;;;;;;;17.42;4.40;;;4.80;53.60;;;;;;4949906;28;114560;-79
2023/03/15 08:42:38;;;;;;;12.05;4.35;;;4.90;53.60;;;;;;4947039;28;114738;-79
2023/03/15 08:45:15;;;;;;;16.83;5.10;;;4.90;53.20;;;;;;4946504;28;115619;-79
2023/03/15 08:47:42;;;;;;;13.23;3.97;;;4.80;53.10;;;;;;4960759;28;114667;-79
2023/03/15 08:50:14;;;;;;;20.40;5.50;;;4.80;52.70;;;;;;4945596;28;114848;-79
2023/03/15 08:52:41;;;;;;;15.63;3.95;;;4.70;53.10;;;;;;4922041;28;114469;-78
2023/03/15 08:55:09;;;;;;;17.92;4.63;;;4.70;53.10;;;;;;4911780;28;115593;-79
2023/03/15 08:57:36;;;;;;;8.93;3.40;;;4.70;52.90;;;;;;4944553;28;115027;-79
2023/03/15 09:00:08;;;;;;;15.57;5.00;;;4.70;52.70;;;;;;4944832;28;114695;-79
2023/03/15 09:02:35;;;;;;;19.85;4.18;;;4.70;52.60;;;;;;4945456;28;114527;-79
2023/03/15 09:05:05;;;;;;;10.73;3.60;;;4.70;52.50;;;;;;4943559;28;115362;-79
2023/03/15 09:07:33;;;;;;;9.55;3.53;;;4.70;52.30;;;;;;4928389;28;115022;-79
2023/03/15 09:10:00;;;;;;;13.38;4.32;;;4.80;52.10;;;;;;4944868;28;115638;-79
2023/03/15 09:12:31;;;;;;;14.48;4.00;;;4.80;52.30;;;;;;4957971;28;114525;-80
2023/03/15 09:14:58;;;;;;;15.82;4.95;;;4.80;52.10;;;;;;4985390;28;116727;-79
2023/03/15 09:17:25;;;;;;;12.88;4.68;;;4.80;52.10;;;;;;4984936;28;114756;-79
2023/03/15 09:19:53;;;;;;;11.90;4.93;;;4.90;51.80;;;;;;4977892;28;114368;-80
2023/03/15 09:22:20;;;;;;;10.80;4.78;;;4.90;51.90;;;;;;4965595;28;114905;-81
2023/03/15 09:25:06;;;;;;;12.95;4.07;;;4.90;51.70;;;;;;4964647;28;115070;-79
2023/03/15 09:27:33;;;;;;;14.63;6.65;;;5.00;51.50;;;;;;4964580;28;114723;-80
2023/03/15 09:30:00;;;;;;;15.23;4.63;;;5.00;51.60;;;;;;4959032;28;115384;-79
2023/03/15 09:32:27;;;;;;;10.88;4.22;;;5.10;51.40;;;;;;4985264;28;114345;-80
2023/03/15 09:34:54;;;;;;;9.80;3.90;;;5.20;51.10;;;;;;4985669;28;115028;-80
2023/03/15 09:37:22;;;;;;;12.25;4.60;;;5.20;51.30;;;;;;4984059;28;114698;-79
2023/03/15 09:39:50;;;;;;;15.07;4.60;;;5.20;50.70;;;;;;4984962;28;114649;-79
2023/03/15 09:42:53;;;;;;;12.63;4.20;;;5.20;50.90;;;;;;4982119;28;115433;-79
2023/03/15 09:45:48;;;;;;;12.45;3.60;;;5.20;50.70;;;;;;4965204;28;115858;-78
2023/03/15 09:48:18;;;;;;;14.98;3.90;;;5.20;50.50;;;;;;4965664;28;114756;-79
2023/03/15 09:50:59;;;;;;;12.45;3.85;;;5.20;50.80;;;;;;4965032;28;114374;-79
2023/03/15 09:53:34;;;;;;;18.55;4.30;;;5.20;50.10;;;;;;4950261;28;114679;-79
2023/03/15 09:56:01;;;;;;;8.73;3.67;;;5.20;49.90;;;;;;4964698;28;115065;-78
2023/03/15 09:58:34;;;;;;;13.85;4.00;;;5.20;49.80;;;;;;4964478;28;114852;-79
2023/03/15 10:01:10;;;;;;;17.63;5.32;;;5.20;49.80;;;;;;4965718;28;114394;-79
2023/03/15 10:03:47;;;;;;;11.57;4.20;;;5.20;50.10;;;;;;4950071;28;114294;-80
2023/03/15 10:06:26;;;;;;;11.20;4.00;;;5.20;50.20;;;;;;4947650;28;115018;-79
2023/03/15 10:08:58;;;;;;;17.50;4.38;;;5.30;50.10;;;;;;4965175;28;114788;-79
2023/03/15 10:11:44;;;;;;;11.10;4.30;;;5.30;50.00;;;;;;4948531;28;114565;-80
2023/03/15 10:14:43;;;;;;;10.65;3.78;;;5.30;49.50;;;;;;4964768;28;114432;-79
2023/03/15 10:17:12;;;;;;;14.73;5.07;;;5.30;49.80;;;;;;4964737;28;115019;-79
2023/03/15 10:19:48;;;;;;;16.20;5.30;;;5.30;49.50;;;;;;4966887;28;115871;-79
2023/03/15 10:22:25;;;;;;;11.77;5.68;;;5.30;49.00;;;;;;4984374;28;114721;-81
2023/03/15 10:25:06;;;;;;;13.85;5.53;;;5.30;49.30;;;;;;4971534;28;115793;-79
2023/03/15 10:27:38;;;;;;;12.60;3.97;;;5.40;49.10;;;;;;4963588;28;115225;-78
2023/03/15 10:30:22;;;;;;;17.15;3.97;;;5.30;48.70;;;;;;4983360;28;114857;-80
2023/03/15 10:33:19;;;;;;;11.32;3.78;;;5.20;48.50;;;;;;4983627;28;114689;-79
2023/03/15 10:35:47;;;;;;;11.48;4.40;;;5.10;48.40;;;;;;4984344;28;114632;-79
2023/03/15 10:38:16;;;;;;;12.68;4.55;;;5.00;49.00;;;;;;4967764;28;115389;-79
2023/03/15 10:40:56;;;;;;;15.10;4.57;;;5.00;49.10;;;;;;4963561;28;114714;-79
2023/03/15 10:43:28;;;;;;;12.63;5.55;;;5.10;49.00;;;;;;4963511;28;114749;-80
2023/03/15 10:46:10;;;;;;;16.85;5.55;;;5.10;49.00;;;;;;4964463;28;114517;-79
2023/03/15 10:48:40;;;;;;;15.27;4.53;;;5.20;48.80;;;;;;4963003;28;116174;-79
2023/03/15 10:51:24;;;;;;;14.65;4.53;;;5.20;48.50;;;;;;4947540;28;114680;-80
2023/03/15 10:53:56;;;;;;;12.60;3.65;;;5.20;48.30;;;;;;4962044;28;114615;-80
2023/03/15 10:56:29;;;;;;;16.52;5.43;;;5.20;48.40;;;;;;4985433;28;114483;-80
2023/03/15 10:58:57;;;;;;;16.43;5.07;;;5.20;48.30;;;;;;4970177;28;115239;-81
2023/03/15 11:01:38;;;;;;;15.52;5.45;;;5.20;48.30;;;;;;4963996;28;115551;-81
2023/03/15 11:04:26;;;;;;;15.77;5.53;;;5.20;48.10;;;;;;4964360;28;114685;-81
2023/03/15 11:06:56;;;;;;;17.42;6.18;;;5.20;47.90;;;;;;4965066;28;114685;-80
2023/03/15 11:09:25;;;;;;;12.10;3.85;;;5.30;47.90;;;;;;4963668;28;118533;-81
2023/03/15 11:11:52;;;;;;;10.68;3.58;;;5.30;47.50;;;;;;4963319;28;115630;-81
2023/03/15 11:14:19;;;;;;;11.30;3.97;;;5.30;47.50;;;;;;4965325;28;114365;-81
2023/03/15 11:16:50;;;;;;;13.95;4.65;;;5.30;47.50;;;;;;4964953;28;115146;-81
2023/03/15 11:19:23;;;;;;;10.95;3.92;;;5.40;47.20;;;;;;4962081;28;115537;-80
2023/03/15 11:21:50;;;;;;;11.50;3.78;;;5.40;47.20;;;;;;4963188;28;114822;-80
2023/03/15 11:24:29;;;;;;;10.55;3.83;;;5.40;47.30;;;;;;4965239;28;114579;-81
2023/03/15 11:27:01;;;;;;;14.65;4.15;;;5.50;47.40;;;;;;4964423;28;114486;-80
2023/03/15 11:29:35;;;;;;;10.45;3.75;;;5.60;47.40;;;;;;4962999;28;115596;-80
2023/03/15 11:32:20;;;;;;;10.35;3.70;;;5.60;47.30;;;;;;4947100;28;116777;-80
2023/03/15 11:34:52;;;;;;;14.82;4.20;;;5.70;47.40;;;;;;4946602;28;114640;-82
2023/03/15 11:37:35;;;;;;;14.60;4.13;;;5.70;46.70;;;;;;4941550;28;115164;-79
2023/03/15 11:40:22;;;;;;;13.73;3.85;;;5.70;46.50;;;;;;4983226;28;115161;-79
2023/03/15 11:43:36;;;;;;;17.95;5.63;;;5.60;46.30;;;;;;4983055;28;114876;-80
2023/03/15 11:46:05;;;;;;;13.80;3.95;;;5.50;46.80;;;;;;4966808;28;114975;-79
2023/03/15 11:48:46;;;;;;;9.48;3.60;;;5.50;47.00;;;;;;4944906;28;115685;-79
2023/03/15 11:51:13;;;;;;;12.68;4.20;;;5.50;46.80;;;;;;4947406;28;115149;-79
2023/03/15 11:54:03;;;;;;;12.75;4.00;;;5.60;47.00;;;;;;4947293;28;114646;-79
2023/03/15 11:56:42;;;;;;;14.25;3.60;;;5.60;46.70;;;;;;4965633;28;116216;-80
2023/03/15 11:59:16;;;;;;;15.25;4.20;;;5.60;46.40;;;;;;4985307;28;114330;-80
2023/03/15 12:01:58;;;;;;;11.88;3.72;;;5.60;46.10;;;;;;4982792;28;115167;-79
2023/03/15 12:04:31;;;;;;;13.18;4.32;;;5.70;46.00;;;;;;4983273;28;114663;-79
2023/03/15 12:07:23;;;;;;;28.58;12.57;;;5.70;45.70;;;;;;4985065;28;114321;-80
2023/03/15 12:09:55;;;;;;;13.52;3.92;;;5.70;45.80;;;;;;4983665;28;114631;-80
2023/03/15 12:12:25;;;;;;;8.68;4.00;;;5.60;45.90;;;;;;4982543;28;115577;-80
2023/03/15 12:15:37;;;;;;;15.45;4.25;;;5.60;45.80;;;;;;4983969;28;114665;-80
2023/03/15 12:18:13;;;;;;;9.57;4.13;;;5.60;45.70;;;;;;4984692;28;114380;-80
2023/03/15 12:21:07;;;;;;;14.27;6.47;;;5.50;45.80;;;;;;4951306;28;114411;-80
2023/03/15 12:23:43;;;;;;;16.15;4.40;;;5.40;46.00;;;;;;4982244;28;116355;-80
2023/03/15 12:26:35;;;;;;;10.27;4.30;;;5.40;46.40;;;;;;4982335;28;114699;-79
2023/03/15 12:29:06;;;;;;;10.43;4.80;;;5.50;46.30;;;;;;4969162;28;114475;-82
2023/03/15 12:32:02;;;;;;;10.35;4.88;;;5.40;46.00;;;;;;4970433;28;115221;-80
2023/03/15 12:34:53;;;;;;;13.18;5.50;;;5.50;46.00;;;;;;4987088;28;115250;-80
2023/03/15 12:37:45;;;;;;;11.23;4.38;;;5.60;46.60;;;;;;4985553;28;114863;-79
2023/03/15 12:40:15;;;;;;;14.43;4.63;;;5.60;46.00;;;;;;4986496;28;114625;-80
2023/03/15 12:42:42;;;;;;;12.70;5.32;;;5.50;46.20;;;;;;4984282;28;114489;-80
2023/03/15 12:45:19;;;;;;;16.48;5.47;;;5.50;46.30;;;;;;4965751;28;115185;-80
2023/03/15 12:47:49;;;;;;;14.02;5.32;;;5.50;46.00;;;;;;4965917;28;116098;-81
2023/03/15 12:50:44;;;;;;;17.20;4.45;;;5.50;46.10;;;;;;4967749;28;114457;-80
2023/03/15 12:53:37;;;;;;;14.93;5.32;;;5.50;45.70;;;;;;4967630;28;114869;-80
2023/03/15 12:56:31;;;;;;;13.52;5.72;;;5.40;46.00;;;;;;4965224;28;115099;-80
2023/03/15 12:59:15;;;;;;;20.52;7.40;;;5.50;46.20;;;;;;4965542;28;114991;-80
2023/03/15 13:01:42;;;;;;;13.90;6.95;;;5.60;46.80;;;;;;4966985;28;114322;-80
2023/03/15 13:04:10;;;;;;;16.20;4.93;;;5.60;46.90;;;;;;4967900;28;114369;-80
2023/03/15 13:07:06;;;;;;;14.52;6.70;;;5.70;46.30;;;;;;4949562;28;115719;-80
2023/03/15 13:09:40;;;;;;;15.20;5.25;;;5.80;45.20;;;;;;4966477;28;114578;-80
2023/03/15 13:12:17;;;;;;;11.82;5.20;;;5.70;45.30;;;;;;4934065;28;114464;-81
2023/03/15 13:15:20;;;;;;;9.27;4.25;;;5.70;44.70;;;;;;4950362;28;114602;-80